Time;durP1;ratioP1;P1;durP2;ratioP2;P2;SDS_P1;SDS_P2;PMS_P1;PMS_P2;Temp;Humidity;BMP_temperature;BMP_pressure;BME280_temperature;BME280_humidity;BME280_pressure;Samples;Min_cycle;Max_cycle;Signal;HPM_P1;HPM_P2
2023/01/15 00:01:03;;;;;;;10.07;1.35;;;6.60;99.90;;;;;;5042388;28;20387;-70
2023/01/15 00:03:29;;;;;;;5.22;1.10;;;6.70;99.90;;;;;;5044645;28;20041;-71
2023/01/15 00:06:00;;;;;;;2.45;0.82;;;6.70;99.90;;;;;;5044436;28;20030;-71
2023/01/15 00:08:26;;;;;;;3.60;1.13;;;6.70;99.90;;;;;;5042739;28;20075;-70
2023/01/15 00:10:51;;;;;;;8.65;1.45;;;6.80;99.90;;;;;;5043207;28;20022;-70
2023/01/15 00:13:17;;;;;;;6.57;1.30;;;6.70;99.90;;;;;;5043913;28;20048;-71
2023/01/15 00:15:43;;;;;;;7.05;1.25;;;6.70;99.90;;;;;;5042917;28;20104;-72
2023/01/15 00:18:09;;;;;;;10.55;1.33;;;6.70;99.90;;;;;;5043581;28;20021;-73
2023/01/15 00:20:35;;;;;;;10.00;1.27;;;6.70;99.90;;;;;;5042736;28;20417;-71
2023/01/15 00:23:01;;;;;;;6.22;1.30;;;6.70;99.90;;;;;;5042767;28;20064;-70
2023/01/15 00:28:13;;;;;;;8.82;1.20;;;6.70;99.90;;;;;;5044323;28;20041;-71
2023/01/15 00:30:41;;;;;;;8.90;1.30;;;6.70;99.90;;;;;;5042831;28;20033;-71
2023/01/15 00:33:06;;;;;;;8.30;1.42;;;6.70;99.90;;;;;;5042574;28;20047;-70
2023/01/15 00:35:32;;;;;;;11.60;1.17;;;6.70;99.90;;;;;;5043438;28;20045;-71
2023/01/15 00:37:59;;;;;;;8.95;1.42;;;6.70;99.90;;;;;;5042480;28;20105;-70
2023/01/15 00:40:24;;;;;;;13.85;1.58;;;6.70;99.90;;;;;;5042674;28;20017;-70
2023/01/15 00:42:50;;;;;;;4.03;1.05;;;6.70;99.90;;;;;;5043868;28;20039;-71
2023/01/15 00:45:16;;;;;;;4.88;1.52;;;6.70;99.90;;;;;;5044052;28;20023;-72
2023/01/15 00:47:43;;;;;;;7.95;1.20;;;6.70;99.90;;;;;;5044123;28;20022;-70
2023/01/15 00:50:14;;;;;;;5.43;1.38;;;6.70;99.90;;;;;;5043382;28;20014;-70
2023/01/15 00:52:40;;;;;;;9.50;1.63;;;6.70;99.90;;;;;;5043624;28;20053;-72
2023/01/15 00:55:07;;;;;;;7.93;1.40;;;6.70;99.90;;;;;;5043077;28;20032;-71
2023/01/15 00:57:33;;;;;;;6.38;1.67;;;6.70;99.90;;;;;;5043374;28;20020;-71
2023/01/15 00:59:58;;;;;;;10.35;1.30;;;6.70;99.90;;;;;;5043645;28;20073;-71
2023/01/15 01:02:24;;;;;;;9.15;1.40;;;6.60;99.90;;;;;;5041982;28;20041;-71
2023/01/15 01:04:49;;;;;;;9.50;1.27;;;6.70;99.90;;;;;;5041591;28;20028;-70
2023/01/15 01:07:17;;;;;;;7.72;1.52;;;6.60;99.90;;;;;;5043270;28;20029;-70
2023/01/15 01:09:43;;;;;;;6.72;1.10;;;6.60;99.90;;;;;;5043056;28;20017;-70
2023/01/15 01:12:08;;;;;;;11.10;1.40;;;6.70;99.90;;;;;;5043301;28;20047;-71
2023/01/15 01:14:36;;;;;;;12.43;2.08;;;6.60;99.90;;;;;;5041653;28;20025;-69
2023/01/15 01:17:02;;;;;;;9.40;1.83;;;6.60;99.90;;;;;;5041276;28;20029;-70
2023/01/15 01:19:28;;;;;;;10.52;2.03;;;6.60;99.90;;;;;;5043112;28;20082;-69
2023/01/15 01:21:53;;;;;;;6.28;1.38;;;6.60;99.90;;;;;;5042834;28;20041;-69
2023/01/15 01:24:22;;;;;;;6.30;1.23;;;6.60;99.90;;;;;;5043478;28;20025;-72
2023/01/15 01:26:48;;;;;;;8.93;1.80;;;6.60;99.90;;;;;;5040774;28;20049;-69
2023/01/15 01:29:17;;;;;;;7.45;1.67;;;6.60;99.90;;;;;;5042684;28;20017;-70
2023/01/15 01:31:44;;;;;;;6.45;1.95;;;6.60;99.90;;;;;;5042552;28;20024;-70
2023/01/15 01:34:14;;;;;;;6.25;1.17;;;6.50;99.90;;;;;;5043043;28;20029;-69
2023/01/15 01:36:42;;;;;;;7.82;1.48;;;6.60;99.90;;;;;;5042618;28;20022;-70
2023/01/15 01:39:12;;;;;;;13.27;1.67;;;6.50;99.90;;;;;;5041369;28;20021;-70
2023/01/15 01:41:38;;;;;;;12.77;1.45;;;6.50;99.90;;;;;;5042534;28;20100;-69
2023/01/15 01:44:05;;;;;;;9.18;1.40;;;6.60;99.90;;;;;;5042589;28;20030;-69
2023/01/15 01:46:33;;;;;;;13.27;1.30;;;6.60;99.90;;;;;;5042723;28;20121;-71
2023/01/15 01:49:11;;;;;;;7.95;1.52;;;6.50;99.90;;;;;;5041084;28;20037;-71
2023/01/15 01:51:50;;;;;;;3.40;0.98;;;6.50;99.90;;;;;;5042083;28;20021;-69
2023/01/15 01:54:20;;;;;;;8.80;1.00;;;6.50;99.90;;;;;;5041189;28;20116;-72
2023/01/15 01:56:48;;;;;;;7.55;1.40;;;6.50;99.90;;;;;;5041872;28;20028;-71
2023/01/15 01:59:15;;;;;;;12.35;0.93;;;6.50;99.90;;;;;;5042243;28;20025;-72
2023/01/15 02:01:40;;;;;;;8.80;1.50;;;6.50;99.90;;;;;;5042362;28;20076;-71
2023/01/15 02:04:09;;;;;;;8.05;1.40;;;6.50;99.90;;;;;;5042163;28;20025;-72
2023/01/15 02:06:37;;;;;;;14.13;1.98;;;6.50;99.90;;;;;;5042158;28;20728;-73
2023/01/15 02:09:03;;;;;;;10.38;1.70;;;6.50;99.90;;;;;;5041809;28;20029;-71
2023/01/15 02:11:30;;;;;;;9.82;1.55;;;6.50;99.90;;;;;;5041578;28;20026;-72
2023/01/15 02:14:10;;;;;;;14.20;1.77;;;6.50;99.90;;;;;;5039285;28;20033;-71
2023/01/15 02:16:52;;;;;;;16.85;1.80;;;6.50;99.90;;;;;;5039772;28;20040;-72
2023/01/15 02:20:02;;;;;;;4.60;1.10;;;6.50;99.90;;;;;;5038726;28;20538;-72
2023/01/15 02:22:49;;;;;;;11.68;1.52;;;6.50;99.90;;;;;;5039468;28;20044;-71
2023/01/15 02:25:32;;;;;;;13.10;2.28;;;6.50;99.90;;;;;;5039558;28;20053;-71
2023/01/15 02:28:31;;;;;;;9.45;1.48;;;6.50;99.90;;;;;;5041304;28;20025;-69
2023/01/15 02:31:12;;;;;;;12.07;1.58;;;6.50;99.90;;;;;;5036174;28;20045;-74
2023/01/15 02:33:51;;;;;;;13.65;1.50;;;6.50;99.90;;;;;;5042132;28;20025;-71
2023/01/15 02:36:21;;;;;;;12.65;1.58;;;6.50;99.90;;;;;;5041715;28;20018;-71
2023/01/15 02:38:50;;;;;;;13.77;1.58;;;6.50;99.90;;;;;;5040851;28;20110;-74
2023/01/15 02:41:19;;;;;;;15.43;2.05;;;6.50;99.90;;;;;;5041229;28;20017;-71
2023/01/15 02:43:48;;;;;;;9.90;1.60;;;6.50;99.90;;;;;;5041581;28;20017;-72
2023/01/15 02:46:16;;;;;;;8.98;1.52;;;6.50;99.90;;;;;;5040146;28;20025;-71
2023/01/15 02:48:46;;;;;;;9.30;1.90;;;6.60;99.90;;;;;;5041286;28;20025;-70
2023/01/15 02:51:19;;;;;;;9.93;1.50;;;6.50;99.90;;;;;;5040172;28;20036;-70
2023/01/15 02:53:48;;;;;;;8.52;1.58;;;6.50;99.90;;;;;;5041542;28;20033;-71
2023/01/15 02:56:19;;;;;;;18.52;1.48;;;6.50;99.90;;;;;;5040307;28;20030;-70
2023/01/15 02:58:46;;;;;;;11.07;1.50;;;6.50;99.90;;;;;;5039918;28;20052;-71
2023/01/15 03:01:18;;;;;;;12.43;2.33;;;6.50;99.90;;;;;;5041322;28;20049;-70
2023/01/15 03:04:11;;;;;;;12.80;1.70;;;6.50;99.90;;;;;;5041740;28;20018;-73
2023/01/15 03:06:45;;;;;;;15.73;1.52;;;6.50;99.90;;;;;;5041016;28;20046;-71
2023/01/15 03:09:11;;;;;;;;;;;6.50;99.90;;;;;;5041899;28;20086;-69
2023/01/15 03:11:43;;;;;;;11.85;1.77;;;6.50;99.90;;;;;;5041354;28;19905;-70
2023/01/15 03:14:20;;;;;;;12.30;1.60;;;6.50;99.90;;;;;;5041526;28;20052;-70
2023/01/15 03:16:57;;;;;;;14.15;2.13;;;6.50;99.90;;;;;;5041075;28;20032;-71
2023/01/15 03:19:28;;;;;;;10.18;1.80;;;6.50;99.90;;;;;;5039779;28;20044;-67
2023/01/15 03:21:56;;;;;;;10.15;1.58;;;6.50;99.90;;;;;;5040778;28;20053;-70
2023/01/15 03:24:51;;;;;;;8.25;1.67;;;6.50;99.90;;;;;;5039533;28;20026;-70
2023/01/15 03:27:18;;;;;;;14.13;1.83;;;6.50;99.90;;;;;;5041080;28;20049;-71
2023/01/15 03:29:50;;;;;;;11.57;1.88;;;6.50;99.90;;;;;;5041084;28;20032;-71
2023/01/15 03:32:18;;;;;;;17.95;1.90;;;6.50;99.90;;;;;;5039612;28;20110;-71
2023/01/15 03:34:53;;;;;;;22.88;1.63;;;6.50;99.90;;;;;;5039919;28;20026;-72
2023/01/15 03:37:23;;;;;;;10.07;1.58;;;6.50;99.90;;;;;;5039512;28;20120;-71
2023/01/15 03:39:49;;;;;;;16.27;2.05;;;6.40;99.90;;;;;;5040978;28;20064;-70
2023/01/15 03:42:40;;;;;;;9.75;1.65;;;6.40;99.90;;;;;;5040821;28;20034;-72
2023/01/15 03:45:19;;;;;;;13.40;1.90;;;6.40;99.90;;;;;;5040947;28;20021;-71
2023/01/15 03:48:07;;;;;;;12.85;1.88;;;6.40;99.90;;;;;;5040986;28;20021;-71
2023/01/15 03:50:41;;;;;;;15.15;2.10;;;6.40;99.90;;;;;;5044799;28;20033;-69
2023/01/15 03:53:12;;;;;;;14.60;1.75;;;6.40;99.90;;;;;;5043150;28;20025;-70
2023/01/15 03:55:53;;;;;;;15.30;2.25;;;6.40;99.90;;;;;;5045162;28;20485;-70
2023/01/15 03:58:21;;;;;;;14.73;1.80;;;6.40;99.90;;;;;;5044322;28;20049;-72
2023/01/15 04:00:51;;;;;;;8.05;2.03;;;6.40;99.90;;;;;;5044311;28;20085;-72
2023/01/15 04:03:21;;;;;;;15.00;2.35;;;6.40;99.90;;;;;;5044776;28;20097;-72
2023/01/15 04:05:49;;;;;;;13.35;2.20;;;6.40;99.90;;;;;;5044037;28;20017;-72
2023/01/15 04:08:15;;;;;;;21.27;1.98;;;6.40;99.90;;;;;;5044208;28;20048;-72
2023/01/15 04:10:51;;;;;;;16.13;2.63;;;6.40;99.90;;;;;;5044817;28;20025;-71
2023/01/15 04:13:17;;;;;;;14.15;1.85;;;6.40;99.90;;;;;;5044205;28;20022;-69
2023/01/15 04:15:46;;;;;;;11.05;2.05;;;6.40;99.90;;;;;;5044624;28;20101;-73
2023/01/15 04:18:11;;;;;;;13.52;2.15;;;6.40;99.90;;;;;;5043180;28;20034;-72
2023/01/15 04:20:37;;;;;;;10.95;1.73;;;6.40;99.90;;;;;;5043692;28;20122;-72
2023/01/15 04:23:02;;;;;;;10.80;1.98;;;6.40;99.90;;;;;;5044155;28;20045;-71
2023/01/15 04:25:28;;;;;;;22.27;2.03;;;6.40;99.90;;;;;;5043887;28;20046;-68
2023/01/15 04:27:54;;;;;;;11.68;1.90;;;6.40;99.90;;;;;;5044297;28;20032;-71
2023/01/15 04:30:20;;;;;;;15.95;1.92;;;6.50;99.90;;;;;;5044155;28;20060;-73
2023/01/15 04:32:50;;;;;;;18.65;2.15;;;6.50;99.90;;;;;;5042552;28;20022;-73
2023/01/15 04:35:17;;;;;;;18.02;2.25;;;6.50;99.90;;;;;;5043873;28;20076;-71
2023/01/15 04:37:43;;;;;;;19.98;2.50;;;6.50;99.90;;;;;;5042404;28;20029;-70
2023/01/15 04:44:05;;;;;;;8.82;2.15;;;6.50;99.90;;;;;;5044138;28;20507;-72
2023/01/15 04:45:43;;;;;;;12.10;1.88;;;6.50;99.90;;;;;;5043703;28;20084;-71
2023/01/15 04:48:09;;;;;;;11.23;2.10;;;6.50;99.90;;;;;;5043718;28;20033;-70
2023/01/15 04:50:34;;;;;;;14.35;2.17;;;6.50;99.90;;;;;;5043682;28;20036;-72
2023/01/15 04:53:00;;;;;;;19.00;2.03;;;6.50;99.90;;;;;;5043770;28;20029;-70
2023/01/15 04:55:26;;;;;;;12.18;1.95;;;6.50;99.90;;;;;;5043850;28;20729;-70
2023/01/15 04:57:51;;;;;;;19.60;2.50;;;6.50;99.90;;;;;;5042117;28;20025;-72
2023/01/15 05:00:18;;;;;;;17.75;2.22;;;6.50;99.90;;;;;;5042863;28;20021;-72
2023/01/15 05:02:43;;;;;;;21.63;2.42;;;6.50;99.90;;;;;;5042182;28;20046;-73
2023/01/15 05:05:09;;;;;;;21.95;3.28;;;6.50;99.90;;;;;;5042256;28;20443;-74
2023/01/15 05:07:34;;;;;;;12.35;2.08;;;6.50;99.90;;;;;;5043459;28;20162;-70
2023/01/15 05:10:00;;;;;;;15.77;2.55;;;6.50;99.90;;;;;;5042797;28;20040;-71
2023/01/15 05:12:25;;;;;;;22.48;2.70;;;6.50;99.90;;;;;;5042068;28;20040;-70
2023/01/15 05:14:51;;;;;;;14.23;2.53;;;6.50;99.90;;;;;;5043173;28;20036;-71
2023/01/15 05:17:17;;;;;;;8.90;1.63;;;6.40;99.90;;;;;;5043429;28;20437;-73
2023/01/15 05:19:42;;;;;;;12.38;2.25;;;6.50;99.90;;;;;;5043526;28;20035;-69
2023/01/15 05:22:08;;;;;;;8.90;1.63;;;6.40;99.90;;;;;;5042867;28;20037;-71
2023/01/15 05:24:43;;;;;;;12.77;2.33;;;6.40;99.90;;;;;;5042414;28;20026;-74
2023/01/15 05:27:09;;;;;;;22.85;2.85;;;6.40;99.90;;;;;;5040341;28;20037;-74
2023/01/15 05:29:35;;;;;;;18.48;2.58;;;6.40;99.90;;;;;;5042626;28;20093;-72
2023/01/15 05:32:00;;;;;;;24.67;2.97;;;6.40;99.90;;;;;;5042219;28;20029;-70
2023/01/15 05:34:26;;;;;;;16.50;1.98;;;6.40;99.90;;;;;;5042624;28;20068;-70
2023/01/15 05:36:52;;;;;;;16.02;2.33;;;6.40;99.90;;;;;;5042868;28;20056;-72
2023/01/15 05:39:18;;;;;;;5.57;1.77;;;6.40;99.90;;;;;;5042961;28;20455;-70
2023/01/15 05:41:49;;;;;;;10.85;2.03;;;6.40;99.90;;;;;;5041367;28;20116;-71
2023/01/15 05:44:19;;;;;;;10.13;2.15;;;6.40;99.90;;;;;;5042740;28;20204;-72
2023/01/15 05:46:46;;;;;;;15.07;1.92;;;6.40;99.90;;;;;;5041373;28;20033;-70
2023/01/15 05:49:15;;;;;;;14.70;2.47;;;6.40;99.90;;;;;;5042635;28;20030;-71
2023/01/15 05:51:40;;;;;;;15.02;1.95;;;6.40;99.90;;;;;;5042329;28;20033;-72
2023/01/15 05:54:10;;;;;;;22.98;2.33;;;6.40;99.90;;;;;;5042375;28;20051;-71
2023/01/15 05:56:36;;;;;;;7.60;1.38;;;6.40;99.90;;;;;;5040476;28;20085;-72
2023/01/15 05:59:04;;;;;;;18.08;2.53;;;6.40;99.90;;;;;;5042528;28;20112;-70
2023/01/15 06:01:30;;;;;;;16.13;2.47;;;6.40;99.90;;;;;;5041949;28;20089;-72
2023/01/15 06:04:00;;;;;;;10.05;1.85;;;6.40;99.90;;;;;;5042410;28;20056;-71
2023/01/15 06:06:25;;;;;;;15.25;2.50;;;6.40;99.90;;;;;;5041880;28;20022;-73
2023/01/15 06:08:55;;;;;;;13.40;1.58;;;6.40;99.90;;;;;;5042167;28;20029;-70
2023/01/15 06:11:22;;;;;;;20.25;2.30;;;6.40;99.90;;;;;;5040778;28;20038;-70
2023/01/15 06:13:47;;;;;;;17.85;2.17;;;6.50;99.90;;;;;;5042378;28;20051;-73
2023/01/15 06:16:14;;;;;;;15.77;2.50;;;6.40;99.90;;;;;;5042193;28;20018;-76
2023/01/15 06:18:40;;;;;;;20.60;2.42;;;6.40;99.90;;;;;;5041057;28;20037;-74
2023/01/15 06:21:07;;;;;;;11.38;2.20;;;6.40;99.90;;;;;;5041276;28;20025;-73
2023/01/15 06:23:36;;;;;;;16.25;2.03;;;6.40;99.90;;;;;;5041379;28;20067;-71
2023/01/15 06:26:05;;;;;;;9.27;2.60;;;6.40;99.90;;;;;;5040488;28;20049;-71
2023/01/15 06:28:31;;;;;;;2.38;0.90;;;6.40;99.90;;;;;;5040213;28;20026;-70
2023/01/15 06:30:57;;;;;;;10.95;2.15;;;6.40;99.90;;;;;;5041993;28;20033;-71
2023/01/15 06:33:23;;;;;;;21.75;2.35;;;6.40;99.90;;;;;;5041543;28;20076;-73
2023/01/15 06:35:48;;;;;;;7.93;1.98;;;6.40;99.90;;;;;;5041892;28;20041;-71
2023/01/15 06:38:14;;;;;;;21.30;2.28;;;6.40;99.90;;;;;;5042030;28;20021;-76
2023/01/15 06:40:40;;;;;;;7.78;2.00;;;6.40;99.90;;;;;;5040754;28;20108;-73
2023/01/15 06:48:35;;;;;;;11.95;2.08;;;6.30;99.90;;;;;;5040804;28;20063;-71
2023/01/15 06:51:00;;;;;;;14.20;2.63;;;6.40;99.90;;;;;;5038263;28;20026;-71
2023/01/15 06:53:26;;;;;;;12.88;2.65;;;6.30;99.90;;;;;;5037623;28;20029;-70
2023/01/15 06:55:51;;;;;;;7.07;2.03;;;6.30;99.90;;;;;;5038977;28;20029;-74
2023/01/15 06:58:17;;;;;;;17.63;2.67;;;6.30;99.90;;;;;;5039806;28;20021;-72
2023/01/15 07:00:45;;;;;;;12.10;1.95;;;6.30;99.90;;;;;;5040127;28;20052;-77
2023/01/15 07:03:13;;;;;;;7.53;2.10;;;6.20;99.90;;;;;;5038221;28;20113;-72
2023/01/15 07:05:39;;;;;;;18.95;2.13;;;6.30;99.90;;;;;;5037006;28;20022;-67
2023/01/15 07:08:05;;;;;;;18.38;2.17;;;6.30;99.90;;;;;;5033809;28;20086;-70
2023/01/15 07:10:33;;;;;;;13.05;1.95;;;6.30;99.90;;;;;;5040385;28;20085;-71
2023/01/15 07:12:58;;;;;;;11.27;2.25;;;6.20;99.90;;;;;;5040055;28;20029;-72
2023/01/15 07:15:24;;;;;;;13.75;2.45;;;6.20;99.90;;;;;;5034102;28;20017;-70
2023/01/15 07:17:53;;;;;;;15.02;1.88;;;6.20;99.90;;;;;;5037358;28;20045;-72
2023/01/15 07:20:20;;;;;;;9.55;1.88;;;6.20;99.90;;;;;;5038637;28;20055;-69
2023/01/15 07:22:49;;;;;;;18.30;2.33;;;6.20;99.90;;;;;;5037094;28;20140;-72
2023/01/15 07:25:17;;;;;;;16.30;2.00;;;6.10;99.90;;;;;;5040141;28;20050;-73
2023/01/15 07:27:46;;;;;;;10.23;1.98;;;6.10;99.90;;;;;;5040663;28;20033;-74
2023/01/15 07:30:12;;;;;;;16.65;2.63;;;6.10;99.90;;;;;;5040516;28;20386;-72
2023/01/15 07:32:37;;;;;;;13.57;2.25;;;6.00;99.90;;;;;;5042525;28;20085;-72
2023/01/15 07:35:03;;;;;;;21.02;1.83;;;6.00;99.90;;;;;;5042436;28;20060;-73
2023/01/15 07:37:29;;;;;;;12.40;2.13;;;6.00;99.90;;;;;;5043832;28;20084;-73
2023/01/15 07:39:56;;;;;;;13.85;2.13;;;5.90;99.90;;;;;;5042872;28;20033;-71
2023/01/15 07:50:38;;;;;;;8.55;1.77;;;5.80;99.90;;;;;;5044244;28;20040;-69
2023/01/15 07:53:03;;;;;;;16.98;1.98;;;5.80;99.90;;;;;;5040423;28;20140;-70
2023/01/15 07:55:29;;;;;;;13.18;2.15;;;5.70;99.90;;;;;;5057765;28;20045;-70
2023/01/15 07:57:55;;;;;;;20.35;3.25;;;5.80;99.90;;;;;;5043229;28;20224;-71
2023/01/15 08:00:23;;;;;;;10.00;1.60;;;5.80;99.90;;;;;;5044077;28;20025;-71
2023/01/15 08:02:49;;;;;;;7.57;1.75;;;5.80;99.90;;;;;;5040904;28;20040;-71
2023/01/15 08:05:15;;;;;;;18.92;2.60;;;5.80;99.90;;;;;;5043189;28;20049;-70
2023/01/15 08:07:42;;;;;;;13.40;2.97;;;5.80;99.90;;;;;;5043623;28;20030;-71
2023/01/15 08:10:10;;;;;;;15.27;2.72;;;5.90;99.90;;;;;;5042108;28;20053;-72
2023/01/15 08:15:20;;;;;;;;;;;5.90;99.90;;;;;;5044466;28;20032;-71
2023/01/15 08:17:47;;;;;;;18.60;2.97;;;5.90;99.90;;;;;;5044246;28;19905;-70
2023/01/15 08:20:21;;;;;;;13.40;2.42;;;5.90;99.90;;;;;;5043903;28;20027;-72
2023/01/15 08:22:47;;;;;;;16.95;2.63;;;5.90;99.90;;;;;;5040393;28;20052;-67
2023/01/15 08:25:18;;;;;;;18.17;3.30;;;5.90;99.90;;;;;;5043980;28;20132;-70
2023/01/15 08:27:43;;;;;;;12.02;2.08;;;5.90;99.90;;;;;;5042039;28;20052;-71
2023/01/15 08:30:23;;;;;;;13.18;2.28;;;5.80;99.90;;;;;;5042321;28;20025;-69
2023/01/15 08:32:48;;;;;;;17.63;2.38;;;5.90;99.90;;;;;;5043308;28;20461;-72
2023/01/15 08:35:14;;;;;;;11.10;2.42;;;5.80;99.90;;;;;;5041335;28;20045;-71
2023/01/15 08:37:41;;;;;;;13.80;2.65;;;5.80;99.90;;;;;;5043347;28;20030;-71
2023/01/15 08:40:08;;;;;;;16.25;1.88;;;5.80;99.90;;;;;;5043655;28;20028;-72
2023/01/15 08:42:34;;;;;;;10.80;2.08;;;5.80;99.90;;;;;;5042121;28;20654;-72
2023/01/15 08:44:59;;;;;;;20.23;2.15;;;5.90;99.90;;;;;;5041692;28;20088;-71
2023/01/15 08:47:25;;;;;;;12.52;2.28;;;5.90;99.90;;;;;;5043354;28;20034;-71
2023/01/15 08:49:50;;;;;;;16.27;1.92;;;6.20;99.90;;;;;;5040344;28;20037;-73
2023/01/15 08:52:16;;;;;;;20.50;2.92;;;6.50;99.90;;;;;;5043437;28;20041;-72
2023/01/15 08:54:42;;;;;;;10.20;1.50;;;6.80;99.90;;;;;;5043036;28;20084;-72
2023/01/15 08:57:10;;;;;;;12.88;2.33;;;7.00;99.90;;;;;;5043176;28;20028;-73
2023/01/15 08:59:36;;;;;;;5.90;1.98;;;7.10;99.90;;;;;;5041443;28;20036;-74
2023/01/15 09:02:01;;;;;;;15.93;5.80;;;7.20;99.90;;;;;;5041601;28;20453;-69
2023/01/15 09:04:30;;;;;;;9.85;2.58;;;7.30;99.90;;;;;;5041837;28;20030;-72
2023/01/15 09:06:56;;;;;;;9.70;1.75;;;7.40;99.90;;;;;;5041132;28;20037;-71
2023/01/15 09:09:21;;;;;;;8.48;1.90;;;7.50;99.90;;;;;;5041459;28;20120;-70
2023/01/15 09:11:47;;;;;;;8.00;2.03;;;7.50;99.90;;;;;;5042986;28;20027;-72
2023/01/15 09:14:15;;;;;;;8.07;1.90;;;7.50;99.90;;;;;;5041556;28;20029;-76
2023/01/15 09:16:41;;;;;;;9.38;2.33;;;7.40;99.90;;;;;;5040536;28;20057;-71
2023/01/15 09:19:09;;;;;;;10.68;2.20;;;7.40;99.90;;;;;;5039438;28;20029;-70
2023/01/15 09:21:34;;;;;;;11.13;2.95;;;7.40;99.90;;;;;;5040569;28;20026;-71
2023/01/15 09:24:00;;;;;;;6.95;1.90;;;7.30;99.90;;;;;;5040375;28;20032;-71
2023/01/15 09:26:34;;;;;;;10.70;2.50;;;7.20;99.90;;;;;;5041353;28;20514;-68
2023/01/15 09:29:01;;;;;;;11.45;2.70;;;7.20;99.90;;;;;;5040976;28;20093;-69
2023/01/15 09:31:27;;;;;;;8.82;2.10;;;7.20;99.90;;;;;;5040649;28;20030;-71
2023/01/15 09:33:53;;;;;;;8.95;2.50;;;7.30;99.90;;;;;;5039018;28;20029;-68
2023/01/15 09:36:27;;;;;;;10.13;2.42;;;7.20;99.90;;;;;;5041082;28;20026;-72
2023/01/15 09:38:53;;;;;;;8.13;1.70;;;7.20;99.90;;;;;;5040187;28;20014;-71
2023/01/15 09:44:09;;;;;;;10.07;2.17;;;7.00;99.90;;;;;;5036291;28;20140;-70
2023/01/15 09:46:52;;;;;;;8.82;1.45;;;7.00;99.90;;;;;;5041533;28;20470;-69
2023/01/15 09:49:31;;;;;;;17.20;2.30;;;7.00;99.90;;;;;;5037197;28;20072;-72
2023/01/15 09:52:01;;;;;;;12.98;2.60;;;7.00;99.90;;;;;;5037282;28;20025;-72
2023/01/15 09:54:40;;;;;;;9.88;1.70;;;7.00;99.90;;;;;;5040131;28;20072;-73
2023/01/15 09:57:14;;;;;;;7.25;1.85;;;7.00;99.90;;;;;;5040236;28;20037;-69
2023/01/15 09:59:42;;;;;;;;;;;7.00;99.90;;;;;;5041208;28;20383;-70
2023/01/15 10:02:29;;;;;;;12.13;1.90;;;7.00;99.90;;;;;;5040085;28;19917;-71
2023/01/15 10:05:14;;;;;;;17.08;2.25;;;7.00;99.90;;;;;;5041804;28;20037;-70
2023/01/15 10:08:21;;;;;;;9.15;1.55;;;7.00;99.90;;;;;;5040064;28;20068;-69
2023/01/15 10:10:53;;;;;;;12.35;2.13;;;7.20;99.90;;;;;;5040236;28;20025;-69
2023/01/15 10:13:45;;;;;;;6.00;1.33;;;7.20;99.90;;;;;;5041104;28;20025;-69
2023/01/15 10:16:21;;;;;;;13.40;1.98;;;7.20;99.90;;;;;;5041226;28;20107;-72
2023/01/15 10:18:47;;;;;;;12.80;1.83;;;7.10;99.90;;;;;;5037560;28;20025;-71
2023/01/15 10:21:31;;;;;;;11.27;1.83;;;7.20;99.90;;;;;;5040652;28;20474;-71
2023/01/15 10:24:09;;;;;;;11.77;2.07;;;7.20;99.90;;;;;;5039880;28;20047;-67
2023/01/15 10:26:39;;;;;;;6.18;1.85;;;7.10;99.90;;;;;;5040927;28;20283;-67
2023/01/15 10:29:43;;;;;;;10.40;1.60;;;7.10;99.90;;;;;;5040524;28;20067;-71
2023/01/15 10:32:17;;;;;;;7.90;1.42;;;7.10;99.90;;;;;;5056102;28;20111;-70
2023/01/15 10:35:21;;;;;;;5.80;1.73;;;7.10;99.90;;;;;;5038198;28;20069;-71
2023/01/15 10:38:05;;;;;;;5.63;1.55;;;7.00;99.90;;;;;;5040086;28;20029;-73
2023/01/15 10:40:41;;;;;;;6.50;1.40;;;7.00;99.90;;;;;;5037218;28;20041;-70
2023/01/15 10:43:19;;;;;;;3.38;1.02;;;6.90;99.90;;;;;;5039492;28;20041;-72
2023/01/15 10:45:49;;;;;;;6.82;0.82;;;6.60;99.90;;;;;;5040502;28;20382;-71
2023/01/15 10:48:37;;;;;;;8.48;1.30;;;6.20;99.90;;;;;;5039943;28;20091;-71
2023/01/15 10:51:17;;;;;;;18.98;4.43;;;5.80;99.90;;;;;;5039881;28;20091;-69
2023/01/15 10:53:54;;;;;;;5.50;2.13;;;5.40;99.90;;;;;;5039819;28;20538;-72
2023/01/15 10:56:44;;;;;;;9.82;1.20;;;5.10;99.90;;;;;;5036791;28;20025;-72
2023/01/15 10:59:17;;;;;;;7.82;1.15;;;4.90;99.90;;;;;;5038328;28;20029;-72
2023/01/15 11:01:43;;;;;;;3.97;1.00;;;4.90;99.90;;;;;;5038867;28;20053;-71
2023/01/15 11:04:12;;;;;;;2.88;0.52;;;4.70;99.90;;;;;;5038534;28;20044;-72
2023/01/15 11:06:38;;;;;;;3.10;0.50;;;4.50;99.90;;;;;;5036076;28;20029;-69
2023/01/15 11:09:06;;;;;;;1.83;0.55;;;4.30;99.90;;;;;;5036045;28;20025;-70
2023/01/15 11:20:43;;;;;;;4.30;0.80;;;5.00;99.90;;;;;;5037636;28;20040;-71
2023/01/15 11:23:13;;;;;;;2.72;1.00;;;5.50;99.90;;;;;;5047907;28;20033;-71
2023/01/15 11:25:55;;;;;;;3.25;1.40;;;5.80;99.90;;;;;;5037108;28;20085;-71
2023/01/15 11:28:41;;;;;;;9.32;3.92;;;5.60;99.90;;;;;;5039669;28;20033;-73
2023/01/15 11:31:09;;;;;;;6.25;2.08;;;5.30;99.90;;;;;;5038256;28;20049;-73
2023/01/15 11:33:54;;;;;;;6.25;2.60;;;5.00;99.90;;;;;;5040607;28;20032;-72
2023/01/15 11:36:25;;;;;;;9.40;2.00;;;4.80;99.90;;;;;;5040165;28;20072;-71
2023/01/15 11:38:51;;;;;;;6.88;1.95;;;4.60;99.90;;;;;;5036441;28;20026;-73
2023/01/15 11:50:42;;;;;;;12.63;2.95;;;4.60;99.90;;;;;;5038676;28;20089;-72
2023/01/15 11:52:47;;;;;;;4.55;1.88;;;4.70;99.90;;;;;;5040329;28;20063;-71
2023/01/15 11:55:18;;;;;;;11.38;2.53;;;4.70;99.90;;;;;;5039952;28;20112;-71
2023/01/15 11:57:44;;;;;;;5.30;2.22;;;4.80;99.90;;;;;;5040974;28;20029;-72
2023/01/15 12:00:29;;;;;;;9.15;2.65;;;4.80;99.90;;;;;;5038072;28;20036;-70
2023/01/15 12:03:02;;;;;;;8.90;2.95;;;4.80;99.90;;;;;;5037640;28;20041;-74
2023/01/15 12:05:31;;;;;;;8.18;3.17;;;4.80;99.90;;;;;;5039249;28;20085;-71
2023/01/15 12:08:00;;;;;;;6.85;2.95;;;5.00;99.90;;;;;;5036347;28;20014;-71
2023/01/15 12:11:04;;;;;;;12.32;2.97;;;5.10;99.90;;;;;;5041165;28;20028;-68
2023/01/15 12:13:42;;;;;;;17.35;3.33;;;5.60;99.90;;;;;;5044062;28;20029;-71
2023/01/15 12:16:16;;;;;;;15.35;4.25;;;6.00;99.90;;;;;;5044017;28;20091;-70
2023/01/15 12:18:47;;;;;;;20.70;5.45;;;6.20;99.90;;;;;;5044547;28;20026;-74
2023/01/15 12:21:58;;;;;;;15.82;3.40;;;6.30;99.90;;;;;;5042807;28;20026;-74
2023/01/15 12:24:45;;;;;;;17.88;4.53;;;6.80;99.90;;;;;;5017785;28;20056;-69
2023/01/15 12:27:29;;;;;;;41.03;12.75;;;6.70;99.90;;;;;;5039462;28;20061;-71
2023/01/15 12:30:04;;;;;;;33.92;10.38;;;6.40;99.90;;;;;;5042007;28;20044;-71
2023/01/15 12:32:40;;;;;;;27.45;7.85;;;6.20;99.90;;;;;;5043874;28;20041;-70
2023/01/15 12:35:13;;;;;;;24.52;6.72;;;6.10;99.90;;;;;;5043906;28;20139;-69
2023/01/15 12:37:51;;;;;;;13.45;4.28;;;6.00;99.90;;;;;;5042733;28;20039;-71
2023/01/15 12:40:19;;;;;;;12.75;3.30;;;5.90;99.90;;;;;;5042856;28;20105;-69
2023/01/15 12:45:47;;;;;;;24.88;6.78;;;5.70;99.90;;;;;;5043667;28;20024;-69
2023/01/15 12:48:21;;;;;;;19.25;4.80;;;5.80;99.90;;;;;;5043788;28;20089;-70
2023/01/15 12:50:50;;;;;;;21.83;6.90;;;5.90;99.90;;;;;;5042409;28;20056;-72
2023/01/15 12:53:19;;;;;;;11.93;4.00;;;5.80;99.90;;;;;;5043414;28;20109;-72
2023/01/15 12:55:56;;;;;;;17.15;4.28;;;5.90;99.90;;;;;;5043547;28;20104;-69
2023/01/15 12:58:46;;;;;;;13.60;3.67;;;6.10;99.90;;;;;;5043399;28;20025;-70
2023/01/15 13:01:18;;;;;;;25.90;7.15;;;6.50;99.90;;;;;;5042551;28;20041;-71
2023/01/15 13:04:10;;;;;;;19.25;5.88;;;6.70;99.90;;;;;;5042126;28;20080;-72
2023/01/15 13:06:41;;;;;;;9.75;4.00;;;6.80;99.90;;;;;;5043525;28;20048;-71
2023/01/15 13:09:35;;;;;;;12.90;4.22;;;6.80;99.90;;;;;;5042120;28;20108;-71
2023/01/15 13:12:01;;;;;;;11.90;3.17;;;6.90;99.90;;;;;;5041208;28;20041;-69
2023/01/15 13:14:26;;;;;;;10.25;3.30;;;6.90;99.90;;;;;;5041526;28;20088;-71
2023/01/15 13:17:11;;;;;;;14.45;3.90;;;6.90;99.90;;;;;;5033955;28;20029;-72
2023/01/15 13:19:57;;;;;;;11.63;2.95;;;7.30;99.90;;;;;;5040481;28;20025;-70
2023/01/15 13:22:26;;;;;;;12.77;4.00;;;7.40;99.90;;;;;;5034757;28;20033;-69
2023/01/15 13:24:58;;;;;;;16.15;5.10;;;7.20;99.90;;;;;;5040540;28;20080;-73
2023/01/15 13:27:48;;;;;;;9.57;3.60;;;7.00;99.90;;;;;;5039118;28;20029;-70
2023/01/15 13:30:32;;;;;;;15.57;3.67;;;6.80;99.90;;;;;;5040962;28;20030;-68
2023/01/15 13:33:33;;;;;;;17.20;4.82;;;6.70;99.90;;;;;;5040839;28;20021;-71
2023/01/15 13:36:10;;;;;;;11.82;3.22;;;6.50;99.90;;;;;;5026634;28;20418;-71
2023/01/15 13:38:42;;;;;;;18.35;5.43;;;6.50;99.90;;;;;;5040380;28;20061;-69
2023/01/15 13:41:08;;;;;;;11.90;3.05;;;6.50;99.90;;;;;;5041430;28;20034;-70
2023/01/15 13:43:35;;;;;;;19.65;4.30;;;6.50;99.90;;;;;;5040326;28;20101;-73
2023/01/15 13:46:04;;;;;;;22.20;4.80;;;6.50;99.90;;;;;;5037476;28;20026;-71
2023/01/15 13:48:39;;;;;;;16.38;3.92;;;6.50;99.90;;;;;;5036959;28;20056;-71
2023/01/15 13:51:18;;;;;;;13.55;3.72;;;6.50;99.90;;;;;;5033359;28;20029;-72
2023/01/15 13:53:47;;;;;;;12.18;3.72;;;6.60;99.90;;;;;;5039753;28;20065;-72
2023/01/15 13:56:24;;;;;;;12.52;3.58;;;6.60;99.90;;;;;;5040133;28;20034;-69